Terminal Aerodrome Forecast
Issued by NWS

Home | Current Version | Previous Version | Text Only | Print | Product List | Glossary On
Versions: 1 2 3 4 5 6 7 8 9 10 11 12 13 14 15 16 17 18 19 20 21 22 23 24 25 26 27 28 29 30 31 32 33 34 35 36 37 38 39 40 41 42
666
FTUS44 KLIX 191422 AAA
TAFHDC
TAF AMD
KHDC 191422Z 1914/2012 18007KT 5SM BR VCSH SCT007 BKN016 OVC100
     FM191600 18007KT 3SM -SHRA BR OVC025
      TEMPO 1918/1922 2SM +TSRA OVC015CB
     FM192300 19004KT P6SM -SHRA VCTS BKN020CB
     FM200100 17007KT 2SM BR VCSH OVC004=

USA.gov is the U.S. government's official web portal to all federal, state and local government web resources and services.